Time;durP1;ratioP1;P1;durP2;ratioP2;P2;SDS_P1;SDS_P2;PMS_P1;PMS_P2;Temp;Humidity;BMP_temperature;BMP_pressure;BME280_temperature;BME280_humidity;BME280_pressure;Samples;Min_cycle;Max_cycle;Signal;HPM_P1;HPM_P2
2021/10/07 00:01:58;;;;;;;;;;;;;;;12.01;75.03;100427.75;5011123;28;915;-60
2021/10/07 00:04:25;;;;;;;;;;;;;;;12.03;74.92;100434.50;5011174;28;1886;-61
2021/10/07 00:06:53;;;;;;;;;;;;;;;12.01;75.44;100445.19;5011109;28;818;-61
2021/10/07 00:09:20;;;;;;;;;;;;;;;11.97;75.14;100427.78;5011905;28;835;-61
2021/10/07 00:11:47;;;;;;;;;;;;;;;12.01;75.19;100441.59;5014555;28;811;-61
2021/10/07 00:14:14;;;;;;;;;;;;;;;11.98;75.70;100425.78;5014614;28;842;-60
2021/10/07 00:16:40;;;;;;;;;;;;;;;11.96;75.39;100437.25;5014403;28;1027;-60
2021/10/07 00:19:07;;;;;;;;;;;;;;;11.93;75.76;100431.75;5014371;28;1374;-61
2021/10/07 00:21:34;;;;;;;;;;;;;;;11.89;75.96;100428.97;5014432;28;889;-61
2021/10/07 00:26:42;;;;;;;;;;;;;;;11.83;76.61;100436.84;5014307;28;727;-60
2021/10/07 00:30:00;;;;;;;;;;;;;;;11.83;76.59;100431.31;5014196;28;815;-61
2021/10/07 00:32:02;;;;;;;;;;;;;;;11.83;76.84;100424.97;4999855;28;1250;-60
2021/10/07 00:39:50;;;;;;;;;;;;;;;11.77;77.34;100426.56;4953625;29;708;-60
2021/10/07 00:42:18;;;;;;;;;;;;;;;11.76;77.01;100425.00;4953589;29;1126;-61
2021/10/07 00:44:45;;;;;;;;;;;;;;;11.75;77.26;100418.63;4953443;29;1949;-61
2021/10/07 00:47:13;;;;;;;;;;;;;;;11.75;77.38;100420.63;4953769;29;918;-60
2021/10/07 00:49:42;;;;;;;;;;;;;;;11.78;77.29;100428.94;4953500;29;891;-61
2021/10/07 00:52:10;;;;;;;;;;;;;;;11.85;76.96;100430.91;4953416;29;872;-60
2021/10/07 00:54:37;;;;;;;;;;;;;;;11.89;76.80;100431.75;4953312;29;1042;-60
2021/10/07 00:57:06;;;;;;;;;;;;;;;11.88;76.77;100432.09;4953326;29;887;-60
2021/10/07 00:59:36;;;;;;;;;;;;;;;11.88;76.99;100427.38;4953441;29;874;-60
2021/10/07 01:02:06;;;;;;;;;;;;;;;11.85;77.19;100434.47;4953552;29;907;-60
2021/10/07 01:04:33;;;;;;;;;;;;;;;11.83;77.23;100436.84;4953222;29;1882;-60
2021/10/07 01:07:01;;;;;;;;;;;;;;;11.84;77.05;100446.75;4953128;29;942;-61
2021/10/07 01:09:31;;;;;;;;;;;;;;;11.86;77.07;100443.56;4953090;29;843;-61
2021/10/07 01:11:59;;;;;;;;;;;;;;;11.87;77.09;100450.69;4953066;29;847;-61
2021/10/07 01:14:58;;;;;;;;;;;;;;;11.88;77.29;100443.19;4999139;28;1039;-60
2021/10/07 01:17:28;;;;;;;;;;;;;;;11.86;77.11;100440.78;5013865;28;1005;-61
2021/10/07 01:19:57;;;;;;;;;;;;;;;11.86;77.36;100440.78;5012806;28;1253;-61
2021/10/07 01:22:25;;;;;;;;;;;;;;;11.86;77.28;100443.56;5013296;28;886;-61
2021/10/07 01:24:52;;;;;;;;;;;;;;;11.84;76.95;100440.41;5013152;28;1964;-60
2021/10/07 01:27:23;;;;;;;;;;;;;;;11.87;76.65;100442.38;5013120;28;847;-61
2021/10/07 01:29:56;;;;;;;;;;;;;;;11.90;76.41;100440.84;5012992;28;865;-61
2021/10/07 01:32:23;;;;;;;;;;;;;;;11.91;76.67;100437.66;5013078;28;866;-60
2021/10/07 01:34:50;;;;;;;;;;;;;;;11.89;76.81;100437.28;5012933;28;841;-60
2021/10/07 01:37:16;;;;;;;;;;;;;;;11.87;76.65;100436.84;5012998;28;803;-60
2021/10/07 01:39:42;;;;;;;;;;;;;;;11.85;76.56;100431.69;5012992;28;811;-60
2021/10/07 01:42:09;;;;;;;;;;;;;;;11.85;76.38;100422.59;5012877;28;1028;-60
2021/10/07 01:44:36;;;;;;;;;;;;;;;11.85;76.11;100406.78;5012676;28;1878;-61
2021/10/07 01:47:03;;;;;;;;;;;;;;;11.85;76.35;100404.00;5012817;28;898;-61
2021/10/07 01:49:31;;;;;;;;;;;;;;;11.89;75.92;100406.81;5012759;28;862;-60
2021/10/07 01:51:58;;;;;;;;;;;;;;;11.89;75.80;100408.78;5012776;28;823;-60
2021/10/07 01:54:25;;;;;;;;;;;;;;;11.87;76.57;100405.59;5012635;28;902;-61
2021/10/07 01:56:52;;;;;;;;;;;;;;;11.85;76.47;100394.91;5012499;28;835;-60
2021/10/07 01:59:19;;;;;;;;;;;;;;;11.81;76.62;100400.44;5012568;28;831;-61
2021/10/07 02:01:45;;;;;;;;;;;;;;;11.80;76.64;100400.84;5012521;28;835;-60
2021/10/07 02:04:12;;;;;;;;;;;;;;;11.78;76.67;100408.78;5012505;28;1886;-60
2021/10/07 02:06:39;;;;;;;;;;;;;;;11.74;76.76;100419.84;5012384;28;839;-61
2021/10/07 02:09:06;;;;;;;;;;;;;;;11.74;77.00;100416.28;5012418;28;843;-60
2021/10/07 02:11:33;;;;;;;;;;;;;;;11.79;76.62;100418.66;5012329;28;830;-61
2021/10/07 02:14:00;;;;;;;;;;;;;;;11.76;76.96;100416.69;5012378;28;819;-60
2021/10/07 02:16:28;;;;;;;;;;;;;;;11.73;77.08;100409.94;4994661;28;1533;-60
2021/10/07 02:18:56;;;;;;;;;;;;;;;11.71;77.18;100412.31;5011930;28;1373;-60
2021/10/07 02:21:23;;;;;;;;;;;;;;;11.68;77.59;100409.56;5012239;28;807;-60
2021/10/07 02:23:49;;;;;;;;;;;;;;;11.62;77.79;100409.94;5011966;28;1971;-60
2021/10/07 02:26:16;;;;;;;;;;;;;;;11.63;77.44;100405.22;5012030;28;890;-60
2021/10/07 02:28:43;;;;;;;;;;;;;;;11.63;77.45;100400.44;5012401;28;795;-60
2021/10/07 02:31:10;;;;;;;;;;;;;;;11.63;77.70;100400.44;5011921;28;1030;-60
2021/10/07 02:33:36;;;;;;;;;;;;;;;11.63;77.76;100410.75;4993930;28;1189;-60
2021/10/07 02:36:04;;;;;;;;;;;;;;;11.64;77.29;100407.56;5011989;28;878;-60
2021/10/07 02:38:30;;;;;;;;;;;;;;;11.69;77.00;100402.81;5011962;28;811;-60
2021/10/07 02:40:57;;;;;;;;;;;;;;;11.69;76.87;100402.81;5012174;28;863;-60
2021/10/07 02:43:23;;;;;;;;;;;;;;;11.67;77.00;100406.00;5011849;28;1981;-60
2021/10/07 02:45:51;;;;;;;;;;;;;;;11.61;77.07;100405.59;5011762;28;1110;-60
2021/10/07 02:48:18;;;;;;;;;;;;;;;11.63;76.92;100417.06;5011862;28;886;-60
2021/10/07 02:50:44;;;;;;;;;;;;;;;11.61;77.66;100416.66;5011834;28;937;-60
2021/10/07 02:53:11;;;;;;;;;;;;;;;11.60;77.92;100415.06;5012057;28;878;-60
2021/10/07 02:55:38;;;;;;;;;;;;;;;11.56;78.28;100422.56;5011996;28;847;-60
2021/10/07 02:58:05;;;;;;;;;;;;;;;11.57;77.78;100417.84;4994072;28;1193;-60
2021/10/07 03:00:31;;;;;;;;;;;;;;;11.57;77.80;100415.09;5011774;28;882;-60
2021/10/07 03:02:57;;;;;;;;;;;;;;;11.60;77.08;100415.06;4994052;28;1312;-60
2021/10/07 03:05:24;;;;;;;;;;;;;;;11.65;76.94;100409.16;5011926;28;1907;-60
2021/10/07 03:07:51;;;;;;;;;;;;;;;11.61;76.57;100410.34;5011602;28;928;-60
2021/10/07 03:10:24;;;;;;;;;;;;;;;11.51;77.05;100414.69;5011652;28;819;-60
2021/10/07 03:12:56;;;;;;;;;;;;;;;11.53;77.34;100417.84;5011577;28;858;-60
2021/10/07 03:15:37;;;;;;;;;;;;;;;11.53;76.94;100417.84;5011679;28;886;-60
2021/10/07 03:18:04;;;;;;;;;;;;;;;11.54;76.73;100413.09;5011787;28;1196;-61
2021/10/07 03:20:34;;;;;;;;;;;;;;;11.49;76.85;100405.97;5011796;28;839;-60
2021/10/07 03:23:01;;;;;;;;;;;;;;;11.37;77.85;100409.94;5011554;28;842;-60
2021/10/07 03:28:32;;;;;;;;;;;;;;;11.20;79.37;100396.81;4988331;28;1191;-60
2021/10/07 03:31:01;;;;;;;;;;;;;;;11.23;79.16;100390.53;5011397;28;878;-60
2021/10/07 03:33:28;;;;;;;;;;;;;;;11.24;79.47;100395.69;5011578;28;819;-60
2021/10/07 03:35:54;;;;;;;;;;;;;;;11.22;79.02;100403.56;4993789;28;1180;-60
2021/10/07 03:38:21;;;;;;;;;;;;;;;11.30;78.46;100403.56;5011353;28;855;-60
2021/10/07 03:40:47;;;;;;;;;;;;;;;11.38;78.40;100396.88;5011401;28;831;-60
2021/10/07 03:43:14;;;;;;;;;;;;;;;11.39;78.44;100395.69;5012043;28;1886;-60
2021/10/07 03:45:41;;;;;;;;;;;;;;;11.36;78.12;100386.19;5015094;28;838;-60
2021/10/07 03:48:07;;;;;;;;;;;;;;;11.36;77.87;100377.09;5015039;28;823;-60
2021/10/07 03:50:35;;;;;;;;;;;;;;;11.39;78.31;100370.75;5015017;28;858;-60
2021/10/07 03:53:01;;;;;;;;;;;;;;;11.40;78.12;100366.81;5014936;28;850;-60
2021/10/07 03:55:27;;;;;;;;;;;;;;;11.42;77.81;100372.75;5014855;28;854;-60
2021/10/07 03:57:56;;;;;;;;;;;;;;;11.42;77.82;100383.84;5014790;28;799;-60
2021/10/07 04:00:25;;;;;;;;;;;;;;;11.37;78.16;100376.72;5014860;28;850;-60
2021/10/07 04:02:52;;;;;;;;;;;;;;;11.38;77.91;100369.19;5015044;28;807;-60
2021/10/07 04:05:17;;;;;;;;;;;;;;;11.37;77.98;100373.13;4997057;28;1949;-60
2021/10/07 04:07:44;;;;;;;;;;;;;;;11.37;77.53;100364.84;5014729;28;799;-60
2021/10/07 04:10:12;;;;;;;;;;;;;;;11.38;77.69;100352.59;5014614;28;811;-60
2021/10/07 04:12:42;;;;;;;;;;;;;;;11.42;77.41;100347.84;5014550;28;866;-60
2021/10/07 04:15:09;;;;;;;;;;;;;;;11.45;76.80;100347.03;5014537;28;915;-60
2021/10/07 04:17:35;;;;;;;;;;;;;;;11.50;76.67;100346.66;5014864;28;1463;-60
2021/10/07 04:20:02;;;;;;;;;;;;;;;11.53;76.11;100345.09;5014231;28;1266;-60
2021/10/07 04:22:29;;;;;;;;;;;;;;;11.56;75.66;100353.38;5014441;28;839;-60
2021/10/07 04:24:58;;;;;;;;;;;;;;;11.61;75.68;100361.28;5014100;28;2030;-60
2021/10/07 04:27:25;;;;;;;;;;;;;;;11.63;75.29;100358.13;5014267;28;840;-60
2021/10/07 04:29:59;;;;;;;;;;;;;;;11.63;75.40;100358.91;5014297;28;831;-61
2021/10/07 04:32:26;;;;;;;;;;;;;;;11.67;75.64;100363.66;5014499;28;854;-60
2021/10/07 04:34:52;;;;;;;;;;;;;;;11.64;75.13;100365.25;4996532;28;1328;-60
2021/10/07 04:37:18;;;;;;;;;;;;;;;11.69;74.98;100367.59;5014123;28;835;-60
2021/10/07 04:39:45;;;;;;;;;;;;;;;11.73;75.00;100370.38;5014155;28;897;-60
2021/10/07 04:42:12;;;;;;;;;;;;;;;11.76;74.71;100358.53;5013944;28;845;-60
2021/10/07 04:44:38;;;;;;;;;;;;;;;11.81;74.13;100360.88;5013988;28;1893;-60
2021/10/07 04:47:04;;;;;;;;;;;;;;;11.89;74.29;100372.78;5014038;28;862;-60
2021/10/07 04:49:32;;;;;;;;;;;;;;;11.97;73.87;100361.28;5014180;28;902;-60
2021/10/07 04:52:01;;;;;;;;;;;;;;;12.02;73.47;100371.19;5013882;28;827;-60
2021/10/07 04:54:29;;;;;;;;;;;;;;;12.05;73.49;100365.63;5013494;28;867;-60
2021/10/07 04:56:56;;;;;;;;;;;;;;;12.06;73.44;100360.88;5013381;28;796;-61
2021/10/07 04:59:23;;;;;;;;;;;;;;;12.13;73.17;100357.31;5013661;28;1226;-60
2021/10/07 05:01:49;;;;;;;;;;;;;;;12.17;72.48;100344.22;5013698;28;875;-60
2021/10/07 05:04:15;;;;;;;;;;;;;;;12.27;72.44;100337.88;5013529;28;1910;-60
2021/10/07 05:06:42;;;;;;;;;;;;;;;12.29;72.20;100329.13;5013627;28;901;-61
2021/10/07 05:09:14;;;;;;;;;;;;;;;12.26;72.12;100342.59;5013459;28;855;-60
2021/10/07 05:17:15;;;;;;;;;;;;;;;12.22;72.44;100341.03;5885271;23;1719;-68
2021/10/07 05:20:06;;;;;;;;;;;;;;;12.26;71.93;100341.81;5013316;28;846;-68
2021/10/07 05:22:37;;;;;;;;;;;;;;;12.32;72.17;100328.34;5013642;28;866;-68
2021/10/07 05:25:05;;;;;;;;;;;;;;;12.35;71.75;100328.31;5013162;28;1992;-67
2021/10/07 05:27:33;;;;;;;;;;;;;;;12.43;71.47;100323.53;5013288;28;889;-68
2021/10/07 05:30:00;;;;;;;;;;;;;;;12.48;70.87;100331.44;4995528;28;1296;-68
2021/10/07 05:35:35;;;;;;;;;;;;;;;12.69;69.82;100326.97;5012304;28;1359;-67
2021/10/07 05:38:02;;;;;;;;;;;;;;;12.78;69.74;100325.38;5013056;28;885;-67
2021/10/07 05:40:49;;;;;;;;;;;;;;;12.89;69.03;100319.75;5013235;28;886;-67
2021/10/07 05:43:17;;;;;;;;;;;;;;;12.93;68.37;100328.03;5012956;28;822;-67
2021/10/07 05:45:44;;;;;;;;;;;;;;;12.96;68.50;100325.25;5012946;28;838;-67
2021/10/07 05:48:10;;;;;;;;;;;;;;;13.06;68.19;100340.25;5012606;28;1050;-67
2021/10/07 05:50:36;;;;;;;;;;;;;;;13.10;67.84;100335.47;5012898;28;818;-67
2021/10/07 05:56:33;;;;;;;;;;;;;;;13.17;67.45;100340.97;5012759;28;692;-66
2021/10/07 05:59:05;;;;;;;;;;;;;;;13.12;67.34;100337.81;5012649;28;873;-67
2021/10/07 06:01:33;;;;;;;;;;;;;;;13.10;67.51;100334.66;5012667;28;913;-67
2021/10/07 06:07:01;;;;;;;;;;;;;;;13.00;67.06;100344.66;5011599;28;672;-67
2021/10/07 06:09:36;;;;;;;;;;;;;;;13.04;66.86;100348.97;5012602;28;921;-68
2021/10/07 06:24:35;;;;;;;;;;;;;;;13.39;65.67;100374.16;5011231;28;1973;-68
2021/10/07 06:27:02;;;;;;;;;;;;;;;13.36;65.70;100373.00;5012252;28;877;-68
2021/10/07 06:29:39;;;;;;;;;;;;;;;13.36;65.99;100388.88;5012090;28;1057;-68
2021/10/07 06:32:08;;;;;;;;;;;;;;;13.44;66.19;100379.25;4992732;28;1251;-68
2021/10/07 06:34:41;;;;;;;;;;;;;;;13.58;65.56;100379.16;5012045;28;838;-67
2021/10/07 06:37:11;;;;;;;;;;;;;;;13.68;65.38;100391.41;5012112;28;811;-67
2021/10/07 06:39:37;;;;;;;;;;;;;;;13.77;65.04;100391.69;5012115;28;835;-68
2021/10/07 06:42:03;;;;;;;;;;;;;;;13.74;64.54;100391.72;5011948;28;1060;-68
2021/10/07 06:44:33;;;;;;;;;;;;;;;13.67;65.17;100396.13;5011872;28;2036;-68
2021/10/07 06:50:23;;;;;;;;;;;;;;;13.78;64.73;100384.94;5012568;28;589;-68
2021/10/07 06:52:50;;;;;;;;;;;;;;;13.81;64.45;100397.25;5012440;28;767;-68
2021/10/07 06:55:16;;;;;;;;;;;;;;;13.90;64.29;100394.78;5012465;28;764;-67
2021/10/07 06:57:43;;;;;;;;;;;;;;;14.07;64.27;100398.59;5012082;28;827;-68
2021/10/07 07:00:10;;;;;;;;;;;;;;;14.17;63.72;100396.91;5011826;28;825;-68
2021/10/07 07:02:38;;;;;;;;;;;;;;;14.26;63.60;100400.75;5011804;28;826;-68
2021/10/07 07:05:25;;;;;;;;;;;;;;;14.33;63.27;100396.34;4994152;28;1941;-67
2021/10/07 07:10:54;;;;;;;;;;;;;;;14.49;63.00;100397.34;5011744;28;683;-68
2021/10/07 07:16:23;;;;;;;;;;;;;;;14.53;62.68;100386.19;5011666;28;1024;-68
2021/10/07 07:18:57;;;;;;;;;;;;;;;14.53;62.67;100390.94;5013417;28;810;-68
2021/10/07 07:21:23;;;;;;;;;;;;;;;14.49;62.87;100391.78;4997955;28;1229;-67
2021/10/07 07:23:52;;;;;;;;;;;;;;;14.37;62.67;100391.53;5015318;28;1965;-68
2021/10/07 07:26:19;;;;;;;;;;;;;;;14.45;62.74;100407.72;5015683;28;803;-68
2021/10/07 07:28:46;;;;;;;;;;;;;;;14.61;62.48;100406.38;5015426;28;827;-68
2021/10/07 07:43:18;;;;;;;;;;;;;;;15.19;60.15;100401.66;5015511;28;516;-68
2021/10/07 07:45:47;;;;;;;;;;;;;;;15.15;60.12;100411.25;5014988;28;1886;-67
2021/10/07 07:48:13;;;;;;;;;;;;;;;15.08;60.00;100406.56;5015269;28;815;-68
2021/10/07 07:50:40;;;;;;;;;;;;;;;15.06;60.52;100407.00;5015153;28;775;-67
2021/10/07 08:05:17;;;;;;;;;;;;;;;15.38;59.72;100413.31;5015349;28;1890;-68
2021/10/07 08:07:44;;;;;;;;;;;;;;;15.49;59.40;100416.72;5015405;28;870;-68
2021/10/07 08:10:19;;;;;;;;;;;;;;;15.50;59.14;100410.72;5014682;28;812;-68
2021/10/07 08:12:47;;;;;;;;;;;;;;;15.49;59.50;100416.72;5014666;28;819;-68
2021/10/07 08:15:20;;;;;;;;;;;;;;;15.52;59.27;100415.88;5014497;28;1120;-68
2021/10/07 08:17:47;;;;;;;;;;;;;;;15.60;59.18;100411.00;5014947;28;951;-68
2021/10/07 08:20:20;;;;;;;;;;;;;;;15.74;58.77;100421.94;5014723;28;835;-68
2021/10/07 08:22:48;;;;;;;;;;;;;;;15.57;59.01;100401.47;5014897;28;1386;-67
2021/10/07 08:25:15;;;;;;;;;;;;;;;15.46;59.72;100420.34;5014517;28;1973;-68
2021/10/07 08:27:42;;;;;;;;;;;;;;;15.60;59.31;100422.16;5014904;28;874;-68
2021/10/07 08:30:10;;;;;;;;;;;;;;;15.73;59.17;100425.94;5013528;28;913;-68
2021/10/07 08:32:39;;;;;;;;;;;;;;;15.86;58.76;100415.75;5014456;28;932;-68
2021/10/07 08:35:13;;;;;;;;;;;;;;;15.89;57.97;100416.91;5014264;28;823;-68
2021/10/07 08:37:40;;;;;;;;;;;;;;;15.83;58.36;100433.34;5014499;28;827;-68
2021/10/07 08:40:07;;;;;;;;;;;;;;;15.90;58.39;100421.28;5014212;28;886;-68
2021/10/07 08:42:34;;;;;;;;;;;;;;;15.93;57.99;100423.22;5014196;28;791;-68
2021/10/07 08:45:01;;;;;;;;;;;;;;;15.95;58.55;100420.78;5014065;28;1886;-68
2021/10/07 08:47:28;;;;;;;;;;;;;;;16.05;58.10;100417.03;5014030;28;830;-67
2021/10/07 08:49:55;;;;;;;;;;;;;;;16.13;58.04;100421.28;5014316;28;873;-68
2021/10/07 08:52:22;;;;;;;;;;;;;;;16.04;57.56;100426.59;5013893;28;803;-68
2021/10/07 08:54:49;;;;;;;;;;;;;;;16.05;57.64;100414.25;5013905;28;815;-68
2021/10/07 08:57:16;;;;;;;;;;;;;;;16.23;57.51;100408.34;5013763;28;818;-68
2021/10/07 08:59:43;;;;;;;;;;;;;;;16.48;56.38;100409.88;5013747;28;858;-68
2021/10/07 09:02:23;;;;;;;;;;;;;;;16.54;56.00;100413.75;5013829;28;894;-68
2021/10/07 09:04:52;;;;;;;;;;;;;;;16.67;55.33;100413.88;5013629;28;1890;-68
2021/10/07 09:07:19;;;;;;;;;;;;;;;16.57;55.34;100401.72;5013694;28;879;-68
2021/10/07 09:09:46;;;;;;;;;;;;;;;16.47;55.53;100416.66;4996039;28;1196;-68
2021/10/07 09:12:14;;;;;;;;;;;;;;;16.33;55.55;100420.53;5013736;28;810;-68
2021/10/07 09:14:44;;;;;;;;;;;;;;;16.31;55.89;100409.00;5013285;28;916;-68
2021/10/07 09:17:12;;;;;;;;;;;;;;;16.42;55.41;100412.38;5013718;28;1050;-68
2021/10/07 09:22:47;;;;;;;;;;;;;;;16.51;55.67;100429.34;5013395;28;617;-68
2021/10/07 09:25:14;;;;;;;;;;;;;;;16.49;55.57;100422.59;5013321;28;1914;-68
2021/10/07 09:27:40;;;;;;;;;;;;;;;16.58;55.58;100430.41;5013287;28;814;-68
2021/10/07 09:30:08;;;;;;;;;;;;;;;16.47;55.79;100416.66;5013211;28;874;-68
2021/10/07 09:32:40;;;;;;;;;;;;;;;16.26;55.91;100423.44;5013172;28;905;-68
2021/10/07 09:35:09;;;;;;;;;;;;;;;16.33;55.92;100426.88;5013141;28;901;-68
2021/10/07 09:37:36;;;;;;;;;;;;;;;16.65;55.61;100427.47;5013137;28;846;-68
2021/10/07 09:40:10;;;;;;;;;;;;;;;16.86;55.19;100431.88;5012901;28;864;-68
2021/10/07 09:42:38;;;;;;;;;;;;;;;17.19;54.74;100429.97;5012875;28;802;-68
2021/10/07 09:45:07;;;;;;;;;;;;;;;17.20;54.18;100431.53;5013008;28;1911;-68
2021/10/07 09:47:40;;;;;;;;;;;;;;;17.19;54.06;100443.91;5012761;28;1085;-68
2021/10/07 09:50:09;;;;;;;;;;;;;;;16.77;54.54;100434.41;4995249;28;1197;-68
2021/10/07 09:52:42;;;;;;;;;;;;;;;16.80;54.55;100433.56;5012814;28;806;-68
2021/10/07 09:55:28;;;;;;;;;;;;;;;17.09;54.37;100440.16;5012740;28;877;-68
2021/10/07 09:57:56;;;;;;;;;;;;;;;17.16;53.49;100439.22;5012730;28;819;-68
2021/10/07 10:00:26;;;;;;;;;;;;;;;17.16;53.58;100441.22;4995095;28;1386;-68
2021/10/07 10:02:59;;;;;;;;;;;;;;;17.14;53.27;100436.84;5012581;28;870;-68
2021/10/07 10:05:27;;;;;;;;;;;;;;;17.35;53.34;100432.00;5012564;28;1989;-68
2021/10/07 10:07:53;;;;;;;;;;;;;;;17.50;52.01;100429.69;5012544;28;823;-68
2021/10/07 10:10:24;;;;;;;;;;;;;;;17.68;51.85;100432.81;5012509;28;885;-68
2021/10/07 10:12:51;;;;;;;;;;;;;;;17.58;51.27;100433.06;5012457;28;858;-68
2021/10/07 10:15:20;;;;;;;;;;;;;;;17.62;51.61;100431.75;5012560;28;846;-68
2021/10/07 10:17:46;;;;;;;;;;;;;;;17.70;51.12;100429.59;5012691;28;990;-68
2021/10/07 10:20:23;;;;;;;;;;;;;;;17.78;50.58;100431.00;5012320;28;799;-68
2021/10/07 10:22:54;;;;;;;;;;;;;;;17.71;51.53;100437.56;5012444;28;1273;-68
2021/10/07 10:25:21;;;;;;;;;;;;;;;17.72;52.14;100438.31;4994470;28;1983;-68
2021/10/07 10:27:52;;;;;;;;;;;;;;;17.85;51.55;100430.06;5012282;28;854;-68
2021/10/07 10:30:23;;;;;;;;;;;;;;;17.63;52.20;100418.59;5012221;28;799;-68
2021/10/07 10:32:50;;;;;;;;;;;;;;;17.54;51.81;100422.00;5012118;28;842;-68
2021/10/07 10:35:31;;;;;;;;;;;;;;;17.42;52.46;100417.09;5012154;28;822;-68
2021/10/07 10:37:59;;;;;;;;;;;;;;;17.41;52.30;100419.09;5012320;28;862;-68
2021/10/07 10:40:25;;;;;;;;;;;;;;;17.48;51.80;100420.94;4994397;28;1195;-68
2021/10/07 10:43:18;;;;;;;;;;;;;;;17.55;51.71;100431.94;4994311;28;886;-68
2021/10/07 10:45:48;;;;;;;;;;;;;;;17.45;51.60;100430.19;4988545;28;1990;-68
2021/10/07 10:48:34;;;;;;;;;;;;;;;17.32;51.83;100427.28;5011906;28;814;-68
2021/10/07 10:51:02;;;;;;;;;;;;;;;17.18;52.29;100413.66;5001197;28;1143;-68
2021/10/07 10:53:28;;;;;;;;;;;;;;;17.24;52.61;100409.09;5011568;28;866;-68
2021/10/07 10:55:55;;;;;;;;;;;;;;;17.32;52.01;100404.94;5011914;28;905;-67
2021/10/07 10:58:22;;;;;;;;;;;;;;;17.20;51.63;100411.19;5011827;28;979;-68
2021/10/07 11:00:48;;;;;;;;;;;;;;;17.07;51.89;100417.47;5011730;28;862;-68
2021/10/07 11:03:19;;;;;;;;;;;;;;;17.24;52.09;100414.69;4994193;28;1244;-68
2021/10/07 11:05:56;;;;;;;;;;;;;;;17.30;51.85;100410.97;4994056;28;1883;-68
2021/10/07 11:08:24;;;;;;;;;;;;;;;17.23;52.06;100410.34;5011753;28;810;-68
2021/10/07 11:10:53;;;;;;;;;;;;;;;17.40;52.04;100414.72;4993989;28;850;-68
2021/10/07 11:13:30;;;;;;;;;;;;;;;17.38;51.54;100413.59;4993999;28;1149;-68
2021/10/07 11:18:58;;;;;;;;;;;;;;;16.94;52.09;100408.97;5011664;28;594;-68
2021/10/07 11:21:25;;;;;;;;;;;;;;;16.80;52.73;100402.84;5011625;28;870;-68
2021/10/07 11:23:53;;;;;;;;;;;;;;;16.78;52.76;100402.50;5011324;28;1926;-68
2021/10/07 11:26:21;;;;;;;;;;;;;;;16.72;52.67;100400.19;5011627;28;850;-68
2021/10/07 11:28:47;;;;;;;;;;;;;;;16.73;52.79;100395.44;4993960;28;863;-68
2021/10/07 11:31:15;;;;;;;;;;;;;;;16.79;52.83;100402.09;5011572;28;906;-68
2021/10/07 11:33:42;;;;;;;;;;;;;;;16.74;52.24;100403.34;5011631;28;839;-67
2021/10/07 11:36:12;;;;;;;;;;;;;;;16.85;52.49;100397.56;5011477;28;851;-67
2021/10/07 11:38:42;;;;;;;;;;;;;;;17.11;51.67;100392.22;5011475;28;826;-67
2021/10/07 11:41:10;;;;;;;;;;;;;;;17.26;51.32;100390.72;5011591;28;879;-67
2021/10/07 11:43:38;;;;;;;;;;;;;;;17.41;50.79;100391.16;5011318;28;1957;-67
2021/10/07 11:46:06;;;;;;;;;;;;;;;17.50;50.34;100382.94;4993877;28;1533;-67
2021/10/07 11:48:34;;;;;;;;;;;;;;;17.76;50.04;100381.09;5011337;28;820;-67
2021/10/07 11:51:02;;;;;;;;;;;;;;;17.88;49.34;100374.06;5011330;28;791;-67
2021/10/07 11:53:33;;;;;;;;;;;;;;;17.78;49.34;100375.06;5011369;28;850;-68
2021/10/07 11:56:01;;;;;;;;;;;;;;;17.73;49.55;100370.81;5011278;28;853;-67
2021/10/07 11:58:29;;;;;;;;;;;;;;;17.85;49.18;100385.31;5011375;28;771;-68
2021/10/07 12:00:56;;;;;;;;;;;;;;;17.89;49.08;100384.00;5011218;28;890;-68
2021/10/07 12:03:31;;;;;;;;;;;;;;;17.91;49.36;100378.75;5011288;28;772;-68
2021/10/07 12:06:04;;;;;;;;;;;;;;;18.17;48.92;100370.50;5014372;28;1949;-68
2021/10/07 12:08:33;;;;;;;;;;;;;;;18.31;48.79;100356.13;5014782;28;866;-68
2021/10/07 12:11:10;;;;;;;;;;;;;;;18.15;48.47;100372.94;5014802;28;839;-68
2021/10/07 12:13:40;;;;;;;;;;;;;;;17.86;48.78;100376.50;5015000;28;862;-70
2021/10/07 12:28:25;;;;;;;;;;;;;;;17.43;50.17;100390.69;5013073;28;1284;-69
2021/10/07 12:30:53;;;;;;;;;;;;;;;17.54;50.05;100394.06;5014351;28;819;-69
2021/10/07 12:33:20;;;;;;;;;;;;;;;17.53;49.79;100401.63;5014318;28;867;-69
2021/10/07 12:35:57;;;;;;;;;;;;;;;17.47;50.39;100400.56;5014550;28;815;-69
2021/10/07 12:38:24;;;;;;;;;;;;;;;17.42;50.56;100386.34;5014437;28;854;-69
2021/10/07 12:40:54;;;;;;;;;;;;;;;17.37;50.85;100406.41;5014067;28;890;-68
2021/10/07 12:43:21;;;;;;;;;;;;;;;17.26;51.39;100401.88;5014177;28;858;-68
2021/10/07 12:46:02;;;;;;;;;;;;;;;17.30;51.21;100398.97;5014017;28;1980;-69
2021/10/07 12:48:43;;;;;;;;;;;;;;;17.24;51.45;100395.13;4996581;28;1352;-68
2021/10/07 12:51:11;;;;;;;;;;;;;;;17.38;51.47;100397.59;5013964;28;822;-68
2021/10/07 12:53:41;;;;;;;;;;;;;;;17.44;51.60;100397.88;5014209;28;878;-69
2021/10/07 12:56:07;;;;;;;;;;;;;;;17.44;51.46;100395.09;5014547;28;779;-67
2021/10/07 12:58:34;;;;;;;;;;;;;;;17.27;52.13;100395.06;4996526;28;1267;-67
2021/10/07 13:01:17;;;;;;;;;;;;;;;17.20;52.41;100394.41;4996176;28;1291;-68
2021/10/07 13:03:44;;;;;;;;;;;;;;;17.24;52.55;100395.94;5013588;28;1947;-68
2021/10/07 13:06:27;;;;;;;;;;;;;;;17.26;52.51;100393.50;5013668;28;866;-68
2021/10/07 13:08:56;;;;;;;;;;;;;;;17.22;52.90;100397.56;5013506;28;868;-68
2021/10/07 13:11:24;;;;;;;;;;;;;;;17.20;53.10;100395.22;5013654;28;897;-67
2021/10/07 13:13:51;;;;;;;;;;;;;;;17.11;53.45;100390.25;5013551;28;919;-66
2021/10/07 13:28:31;;;;;;;;;;;;;;;16.56;55.69;100402.13;5010908;28;1489;-66
2021/10/07 13:30:59;;;;;;;;;;;;;;;16.52;55.78;100407.81;5013215;28;819;-67
2021/10/07 13:33:25;;;;;;;;;;;;;;;16.29;56.21;100405.84;5013398;28;830;-66
2021/10/07 13:35:51;;;;;;;;;;;;;;;16.15;56.88;100412.47;5013102;28;881;-66
2021/10/07 13:38:27;;;;;;;;;;;;;;;16.03;57.13;100404.72;5013047;28;976;-66
2021/10/07 13:41:01;;;;;;;;;;;;;;;16.02;57.50;100403.16;5012981;28;890;-67
2021/10/07 13:43:29;;;;;;;;;;;;;;;16.04;57.70;100400.72;5012951;28;1069;-67
2021/10/07 13:46:03;;;;;;;;;;;;;;;16.11;57.52;100389.47;4995330;28;1965;-67
2021/10/07 13:48:30;;;;;;;;;;;;;;;15.89;58.07;100386.25;4995223;28;1110;-67
2021/10/07 13:50:58;;;;;;;;;;;;;;;15.77;58.48;100384.88;5012876;28;819;-67
2021/10/07 13:53:25;;;;;;;;;;;;;;;15.74;58.94;100382.91;5012861;28;866;-67
2021/10/07 13:56:19;;;;;;;;;;;;;;;15.74;58.89;100391.28;5012756;28;894;-67
2021/10/07 13:58:46;;;;;;;;;;;;;;;15.79;58.75;100392.78;5012711;28;890;-67
2021/10/07 14:04:15;;;;;;;;;;;;;;;15.68;59.32;100390.16;5012628;28;1910;-68
2021/10/07 14:06:43;;;;;;;;;;;;;;;15.67;59.59;100392.16;5012546;28;850;-67
2021/10/07 14:09:24;;;;;;;;;;;;;;;15.56;59.61;100394.34;5012454;28;795;-67
2021/10/07 14:11:51;;;;;;;;;;;;;;;15.37;60.25;100404.16;5012484;28;925;-67
2021/10/07 14:14:18;;;;;;;;;;;;;;;15.17;61.30;100412.44;5012445;28;816;-67
2021/10/07 14:16:45;;;;;;;;;;;;;;;15.10;61.66;100413.28;5012445;28;887;-68
2021/10/07 14:19:12;;;;;;;;;;;;;;;14.93;62.20;100403.19;5012518;28;859;-67
2021/10/07 14:24:42;;;;;;;;;;;;;;;14.77;62.72;100423.28;5012479;28;2001;-67
2021/10/07 14:27:08;;;;;;;;;;;;;;;14.83;62.64;100418.03;5012264;28;893;-65
2021/10/07 14:29:37;;;;;;;;;;;;;;;14.73;63.04;100413.41;4994046;28;1323;-65
2021/10/07 14:32:09;;;;;;;;;;;;;;;14.65;63.36;100410.69;5012432;28;795;-66
2021/10/07 14:34:36;;;;;;;;;;;;;;;14.53;63.82;100424.31;5012053;28;986;-66
2021/10/07 14:37:22;;;;;;;;;;;;;;;14.38;64.19;100424.50;5012226;28;862;-66
2021/10/07 14:39:51;;;;;;;;;;;;;;;14.32;64.56;100425.31;5012029;28;810;-68
2021/10/07 14:42:18;;;;;;;;;;;;;;;14.21;64.75;100414.31;5012064;28;842;-68
2021/10/07 14:44:47;;;;;;;;;;;;;;;14.20;65.01;100429.44;5011888;28;1909;-68
2021/10/07 14:47:15;;;;;;;;;;;;;;;14.16;65.04;100414.78;5012004;28;930;-68
2021/10/07 14:49:45;;;;;;;;;;;;;;;14.13;65.06;100421.16;5011923;28;865;-67
2021/10/07 14:52:13;;;;;;;;;;;;;;;14.16;65.15;100423.13;5012020;28;842;-68